sensor_id;sensor_type;location;lat;lon;timestamp;pressure;altitude;pressure_sealevel;temperature;humidity
34065;BME280;20339;49.754;20.158;2023-07-13T00:01:51;96362.86;;;20.97;73.97
34065;BME280;20339;49.754;20.158;2023-07-13T00:04:24;96363.66;;;21.01;73.95
34065;BME280;20339;49.754;20.158;2023-07-13T00:06:57;96362.37;;;21.01;73.96
34065;BME280;20339;49.754;20.158;2023-07-13T00:09:30;96362.86;;;21.03;74.25
34065;BME280;20339;49.754;20.158;2023-07-13T00:12:02;96361.09;;;21.03;74.41
34065;BME280;20339;49.754;20.158;2023-07-13T00:14:35;96355.31;;;21.03;74.34
34065;BME280;20339;49.754;20.158;2023-07-13T00:17:07;96359.71;;;21.04;74.31
34065;BME280;20339;49.754;20.158;2023-07-13T00:19:39;96362.81;;;21.05;74.61
34065;BME280;20339;49.754;20.158;2023-07-13T00:22:12;96377.27;;;21.03;74.88
34065;BME280;20339;49.754;20.158;2023-07-13T00:24:45;96370.27;;;20.94;74.99
34065;BME280;20339;49.754;20.158;2023-07-13T00:27:17;96356.10;;;20.90;75.52
34065;BME280;20339;49.754;20.158;2023-07-13T00:29:51;96356.86;;;20.86;75.67
34065;BME280;20339;49.754;20.158;2023-07-13T00:32:25;96360.66;;;20.78;76.07
34065;BME280;20339;49.754;20.158;2023-07-13T00:34:58;96371.35;;;20.77;76.25
34065;BME280;20339;49.754;20.158;2023-07-13T00:37:31;96388.86;;;20.72;76.29
34065;BME280;20339;49.754;20.158;2023-07-13T00:40:04;96429.85;;;20.61;75.96
34065;BME280;20339;49.754;20.158;2023-07-13T00:42:37;96449.26;;;20.38;76.30
34065;BME280;20339;49.754;20.158;2023-07-13T00:48:34;96439.48;;;20.29;76.38
34065;BME280;20339;49.754;20.158;2023-07-13T00:51:09;96449.65;;;20.22;76.48
34065;BME280;20339;49.754;20.158;2023-07-13T00:53:42;96435.24;;;20.14;76.75
34065;BME280;20339;49.754;20.158;2023-07-13T00:56:22;96427.46;;;20.11;76.68
34065;BME280;20339;49.754;20.158;2023-07-13T00:58:54;96430.59;;;20.02;76.64
34065;BME280;20339;49.754;20.158;2023-07-13T01:01:28;96426.00;;;19.86;76.82
34065;BME280;20339;49.754;20.158;2023-07-13T01:03:59;96429.48;;;19.71;77.20
34065;BME280;20339;49.754;20.158;2023-07-13T01:06:32;96413.20;;;19.60;77.61
34065;BME280;20339;49.754;20.158;2023-07-13T01:09:05;96405.70;;;19.56;78.20
34065;BME280;20339;49.754;20.158;2023-07-13T01:11:37;96423.61;;;19.54;78.41
34065;BME280;20339;49.754;20.158;2023-07-13T01:14:10;96422.48;;;19.53;78.44
34065;BME280;20339;49.754;20.158;2023-07-13T01:16:43;96405.70;;;19.54;78.49
34065;BME280;20339;49.754;20.158;2023-07-13T01:19:28;96414.27;;;19.55;78.63
34065;BME280;20339;49.754;20.158;2023-07-13T01:22:08;96455.86;;;19.46;78.33
34065;BME280;20339;49.754;20.158;2023-07-13T01:24:44;96478.73;;;19.33;78.96
34065;BME280;20339;49.754;20.158;2023-07-13T01:27:20;96481.55;;;19.32;79.64
34065;BME280;20339;49.754;20.158;2023-07-13T01:29:54;96504.02;;;19.30;79.36
34065;BME280;20339;49.754;20.158;2023-07-13T01:32:34;96496.14;;;19.27;79.65
34065;BME280;20339;49.754;20.158;2023-07-13T01:35:08;96476.46;;;19.28;80.02
34065;BME280;20339;49.754;20.158;2023-07-13T01:37:40;96467.72;;;19.27;79.80
34065;BME280;20339;49.754;20.158;2023-07-13T01:40:13;96457.17;;;19.06;79.55
34065;BME280;20339;49.754;20.158;2023-07-13T01:42:46;96456.51;;;18.90;80.42
34065;BME280;20339;49.754;20.158;2023-07-13T01:45:18;96459.73;;;18.90;81.37
34065;BME280;20339;49.754;20.158;2023-07-13T01:47:53;96447.14;;;18.94;81.37
34065;BME280;20339;49.754;20.158;2023-07-13T01:50:33;96437.88;;;18.98;81.53
34065;BME280;20339;49.754;20.158;2023-07-13T01:53:05;96436.84;;;19.04;81.80
34065;BME280;20339;49.754;20.158;2023-07-13T01:55:38;96433.56;;;19.05;81.90
34065;BME280;20339;49.754;20.158;2023-07-13T01:58:10;96431.64;;;19.05;81.72
34065;BME280;20339;49.754;20.158;2023-07-13T02:00:41;96434.23;;;19.04;82.04
34065;BME280;20339;49.754;20.158;2023-07-13T02:03:14;96441.14;;;19.07;82.15
34065;BME280;20339;49.754;20.158;2023-07-13T02:05:51;96437.97;;;19.06;82.17
34065;BME280;20339;49.754;20.158;2023-07-13T02:08:23;96438.61;;;19.04;82.22
34065;BME280;20339;49.754;20.158;2023-07-13T02:10:56;96431.60;;;19.03;82.40
34065;BME280;20339;49.754;20.158;2023-07-13T02:13:32;96429.31;;;19.01;82.40
34065;BME280;20339;49.754;20.158;2023-07-13T02:16:04;96427.20;;;18.97;82.47
34065;BME280;20339;49.754;20.158;2023-07-13T02:18:37;96430.84;;;18.96;82.78
34065;BME280;20339;49.754;20.158;2023-07-13T02:21:10;96421.46;;;18.98;82.96
34065;BME280;20339;49.754;20.158;2023-07-13T02:23:42;96408.70;;;19.00;82.95
34065;BME280;20339;49.754;20.158;2023-07-13T02:26:15;96399.89;;;19.01;82.95
34065;BME280;20339;49.754;20.158;2023-07-13T02:28:47;96396.38;;;19.01;83.01
34065;BME280;20339;49.754;20.158;2023-07-13T02:31:25;96392.91;;;19.03;83.16
34065;BME280;20339;49.754;20.158;2023-07-13T02:33:59;96387.55;;;18.99;83.05
34065;BME280;20339;49.754;20.158;2023-07-13T02:36:31;96382.66;;;18.94;83.22
34065;BME280;20339;49.754;20.158;2023-07-13T02:39:07;96390.00;;;18.93;83.53
34065;BME280;20339;49.754;20.158;2023-07-13T02:41:39;96389.44;;;18.90;83.39
34065;BME280;20339;49.754;20.158;2023-07-13T02:44:13;96388.86;;;18.86;83.34
34065;BME280;20339;49.754;20.158;2023-07-13T02:46:48;96389.48;;;18.84;83.56
34065;BME280;20339;49.754;20.158;2023-07-13T02:49:24;96388.83;;;18.83;83.63
34065;BME280;20339;49.754;20.158;2023-07-13T02:51:57;96384.57;;;18.85;83.91
34065;BME280;20339;49.754;20.158;2023-07-13T02:54:29;96385.10;;;18.89;84.10
34065;BME280;20339;49.754;20.158;2023-07-13T02:57:05;96391.41;;;18.92;83.99
34065;BME280;20339;49.754;20.158;2023-07-13T02:59:37;96394.48;;;18.91;83.73
34065;BME280;20339;49.754;20.158;2023-07-13T03:02:10;96396.09;;;18.92;83.62
34065;BME280;20339;49.754;20.158;2023-07-13T03:04:43;96385.59;;;18.92;83.78
34065;BME280;20339;49.754;20.158;2023-07-13T03:07:15;96376.59;;;18.94;83.83
34065;BME280;20339;49.754;20.158;2023-07-13T03:09:48;96367.66;;;18.96;83.88
34065;BME280;20339;49.754;20.158;2023-07-13T03:12:20;96364.44;;;18.99;83.97
34065;BME280;20339;49.754;20.158;2023-07-13T03:14:52;96366.33;;;19.00;83.94
34065;BME280;20339;49.754;20.158;2023-07-13T03:17:25;96369.42;;;19.01;83.98
34065;BME280;20339;49.754;20.158;2023-07-13T03:19:58;96372.70;;;19.00;83.87
34065;BME280;20339;49.754;20.158;2023-07-13T03:22:31;96377.91;;;18.97;83.89
34065;BME280;20339;49.754;20.158;2023-07-13T03:25:05;96378.20;;;18.94;83.88
34065;BME280;20339;49.754;20.158;2023-07-13T03:27:38;96373.05;;;18.91;83.97
34065;BME280;20339;49.754;20.158;2023-07-13T03:30:14;96374.36;;;18.91;84.21
34065;BME280;20339;49.754;20.158;2023-07-13T03:32:46;96375.54;;;18.92;84.35
34065;BME280;20339;49.754;20.158;2023-07-13T03:35:19;96373.52;;;18.94;84.33
34065;BME280;20339;49.754;20.158;2023-07-13T03:37:52;96378.62;;;18.95;84.42
34065;BME280;20339;49.754;20.158;2023-07-13T03:40:25;96383.80;;;18.97;84.42
34065;BME280;20339;49.754;20.158;2023-07-13T03:43:00;96388.28;;;18.97;84.41
34065;BME280;20339;49.754;20.158;2023-07-13T03:45:33;96380.32;;;18.95;84.27
34065;BME280;20339;49.754;20.158;2023-07-13T03:48:06;96380.28;;;18.94;84.28
34065;BME280;20339;49.754;20.158;2023-07-13T03:50:39;96378.62;;;18.95;84.56
34065;BME280;20339;49.754;20.158;2023-07-13T03:53:11;96381.35;;;18.94;84.33
34065;BME280;20339;49.754;20.158;2023-07-13T03:55:44;96384.29;;;18.92;84.53
34065;BME280;20339;49.754;20.158;2023-07-13T03:58:33;96376.27;;;18.91;84.54
34065;BME280;20339;49.754;20.158;2023-07-13T04:01:07;96369.84;;;18.91;84.69
34065;BME280;20339;49.754;20.158;2023-07-13T04:03:40;96374.58;;;18.91;84.72
34065;BME280;20339;49.754;20.158;2023-07-13T04:06:17;96379.55;;;18.88;84.56
34065;BME280;20339;49.754;20.158;2023-07-13T04:08:52;96384.08;;;18.80;84.78
34065;BME280;20339;49.754;20.158;2023-07-13T04:11:30;96384.98;;;18.75;85.06
34065;BME280;20339;49.754;20.158;2023-07-13T04:14:02;96383.80;;;18.72;85.10
34065;BME280;20339;49.754;20.158;2023-07-13T04:16:34;96378.91;;;18.65;85.33
34065;BME280;20339;49.754;20.158;2023-07-13T04:19:05;96384.65;;;18.67;85.73
34065;BME280;20339;49.754;20.158;2023-07-13T04:21:37;96384.22;;;18.71;85.83
34065;BME280;20339;49.754;20.158;2023-07-13T04:24:09;96390.75;;;18.75;85.95
34065;BME280;20339;49.754;20.158;2023-07-13T04:26:40;96394.41;;;18.82;86.08
34065;BME280;20339;49.754;20.158;2023-07-13T04:29:12;96399.17;;;18.92;86.23
34065;BME280;20339;49.754;20.158;2023-07-13T04:31:48;96398.52;;;18.98;86.16
34065;BME280;20339;49.754;20.158;2023-07-13T04:34:21;96396.09;;;19.04;86.20
34065;BME280;20339;49.754;20.158;2023-07-13T04:36:55;96396.50;;;19.08;86.08
34065;BME280;20339;49.754;20.158;2023-07-13T04:39:27;96396.75;;;19.06;85.91
34065;BME280;20339;49.754;20.158;2023-07-13T04:42:00;96395.15;;;19.06;86.07
34065;BME280;20339;49.754;20.158;2023-07-13T04:44:33;96379.21;;;19.07;85.94
34065;BME280;20339;49.754;20.158;2023-07-13T04:47:07;96376.00;;;19.05;86.01
34065;BME280;20339;49.754;20.158;2023-07-13T04:49:40;96370.31;;;19.02;86.03
34065;BME280;20339;49.754;20.158;2023-07-13T04:52:12;96370.75;;;19.04;86.51
34065;BME280;20339;49.754;20.158;2023-07-13T04:54:45;96364.60;;;19.14;87.01
34065;BME280;20339;49.754;20.158;2023-07-13T04:57:17;96357.71;;;19.31;87.14
34065;BME280;20339;49.754;20.158;2023-07-13T04:59:50;96351.23;;;19.48;87.19
34065;BME280;20339;49.754;20.158;2023-07-13T05:02:24;96337.91;;;19.63;86.78
34065;BME280;20339;49.754;20.158;2023-07-13T05:04:59;96333.58;;;19.76;86.85
34065;BME280;20339;49.754;20.158;2023-07-13T05:07:37;96329.81;;;19.88;86.76
34065;BME280;20339;49.754;20.158;2023-07-13T05:10:10;96329.16;;;20.01;86.80
34065;BME280;20339;49.754;20.158;2023-07-13T05:12:43;96334.08;;;20.22;86.78
34065;BME280;20339;49.754;20.158;2023-07-13T05:15:16;96334.11;;;20.45;86.82
34065;BME280;20339;49.754;20.158;2023-07-13T05:17:51;96333.02;;;20.81;87.02
34065;BME280;20339;49.754;20.158;2023-07-13T05:20:29;96321.19;;;21.32;87.29
34065;BME280;20339;49.754;20.158;2023-07-13T05:23:02;96315.78;;;22.07;87.96
34065;BME280;20339;49.754;20.158;2023-07-13T05:25:35;96316.31;;;22.99;86.23
34065;BME280;20339;49.754;20.158;2023-07-13T05:28:07;96314.39;;;23.52;83.12
34065;BME280;20339;49.754;20.158;2023-07-13T05:30:39;96307.54;;;23.89;81.95
34065;BME280;20339;49.754;20.158;2023-07-13T05:33:12;96308.40;;;24.50;80.75
34065;BME280;20339;49.754;20.158;2023-07-13T05:35:45;96306.15;;;24.81;78.48
34065;BME280;20339;49.754;20.158;2023-07-13T05:38:19;96308.06;;;24.88;76.27
34065;BME280;20339;49.754;20.158;2023-07-13T05:40:57;96306.95;;;24.84;75.45
34065;BME280;20339;49.754;20.158;2023-07-13T05:43:35;96308.21;;;24.89;74.40
34065;BME280;20339;49.754;20.158;2023-07-13T05:46:22;96306.91;;;24.91;73.94
34065;BME280;20339;49.754;20.158;2023-07-13T05:49:02;96305.00;;;25.18;74.34
34065;BME280;20339;49.754;20.158;2023-07-13T05:51:43;96306.80;;;25.59;73.74
34065;BME280;20339;49.754;20.158;2023-07-13T05:54:32;96305.90;;;25.94;72.80
34065;BME280;20339;49.754;20.158;2023-07-13T05:57:14;96310.60;;;26.19;71.86
34065;BME280;20339;49.754;20.158;2023-07-13T05:59:50;96312.66;;;26.46;71.32
34065;BME280;20339;49.754;20.158;2023-07-13T06:02:22;96313.28;;;26.65;70.36
34065;BME280;20339;49.754;20.158;2023-07-13T06:04:55;96322.29;;;26.62;69.37
34065;BME280;20339;49.754;20.158;2023-07-13T06:07:27;96319.25;;;26.70;68.63
34065;BME280;20339;49.754;20.158;2023-07-13T06:10:00;96324.51;;;26.94;68.39
34065;BME280;20339;49.754;20.158;2023-07-13T06:12:34;96331.32;;;27.19;67.74
34065;BME280;20339;49.754;20.158;2023-07-13T06:15:08;96334.88;;;27.49;67.60
34065;BME280;20339;49.754;20.158;2023-07-13T06:17:39;96326.36;;;27.80;66.94
34065;BME280;20339;49.754;20.158;2023-07-13T06:20:11;96325.05;;;27.77;65.88
34065;BME280;20339;49.754;20.158;2023-07-13T06:22:44;96321.91;;;27.67;65.31
34065;BME280;20339;49.754;20.158;2023-07-13T06:25:16;96328.08;;;27.57;64.77
34065;BME280;20339;49.754;20.158;2023-07-13T06:27:49;96329.71;;;27.39;64.52
34065;BME280;20339;49.754;20.158;2023-07-13T06:30:22;96334.33;;;27.26;64.71
34065;BME280;20339;49.754;20.158;2023-07-13T06:32:58;96332.10;;;27.42;65.63
34065;BME280;20339;49.754;20.158;2023-07-13T06:35:35;96326.67;;;27.61;64.37
34065;BME280;20339;49.754;20.158;2023-07-13T06:38:22;96333.96;;;27.20;63.29
34065;BME280;20339;49.754;20.158;2023-07-13T06:40:55;96333.06;;;26.89;63.49
34065;BME280;20339;49.754;20.158;2023-07-13T06:43:27;96338.80;;;26.92;63.52
34065;BME280;20339;49.754;20.158;2023-07-13T06:46:01;96342.45;;;26.97;63.03
34065;BME280;20339;49.754;20.158;2023-07-13T06:48:32;96346.88;;;26.98;62.34
34065;BME280;20339;49.754;20.158;2023-07-13T06:51:04;96341.99;;;26.95;61.90
34065;BME280;20339;49.754;20.158;2023-07-13T06:53:35;96337.81;;;26.85;61.85
34065;BME280;20339;49.754;20.158;2023-07-13T06:56:07;96330.95;;;26.98;61.98
34065;BME280;20339;49.754;20.158;2023-07-13T06:58:39;96330.24;;;27.12;61.90
34065;BME280;20339;49.754;20.158;2023-07-13T07:01:10;96330.11;;;27.33;61.36
34065;BME280;20339;49.754;20.158;2023-07-13T07:03:42;96333.58;;;27.44;60.62
34065;BME280;20339;49.754;20.158;2023-07-13T07:06:18;96328.75;;;27.45;60.27
34065;BME280;20339;49.754;20.158;2023-07-13T07:08:50;96330.23;;;27.48;59.76
34065;BME280;20339;49.754;20.158;2023-07-13T07:11:24;96325.95;;;27.68;59.93
34065;BME280;20339;49.754;20.158;2023-07-13T07:13:56;96322.02;;;27.78;59.23
34065;BME280;20339;49.754;20.158;2023-07-13T07:16:30;96318.23;;;27.74;58.90
34065;BME280;20339;49.754;20.158;2023-07-13T07:19:06;96315.60;;;27.84;59.49
34065;BME280;20339;49.754;20.158;2023-07-13T07:21:38;96317.36;;;28.01;60.94
34065;BME280;20339;49.754;20.158;2023-07-13T07:24:10;96316.77;;;28.19;61.50
34065;BME280;20339;49.754;20.158;2023-07-13T07:26:47;96313.81;;;28.08;61.02
34065;BME280;20339;49.754;20.158;2023-07-13T07:29:21;96315.73;;;27.74;61.02
34065;BME280;20339;49.754;20.158;2023-07-13T07:31:56;96322.06;;;27.43;61.64
34065;BME280;20339;49.754;20.158;2023-07-13T07:34:32;96330.45;;;27.21;61.93
34065;BME280;20339;49.754;20.158;2023-07-13T07:37:04;96328.10;;;26.76;62.17
34065;BME280;20339;49.754;20.158;2023-07-13T07:39:39;96332.65;;;26.24;63.16
34065;BME280;20339;49.754;20.158;2023-07-13T07:42:13;96331.53;;;26.02;64.78
34065;BME280;20339;49.754;20.158;2023-07-13T07:44:45;96329.80;;;25.90;65.39
34065;BME280;20339;49.754;20.158;2023-07-13T07:47:19;96329.19;;;25.69;65.39
34065;BME280;20339;49.754;20.158;2023-07-13T07:49:53;96327.72;;;25.38;65.70
34065;BME280;20339;49.754;20.158;2023-07-13T07:52:24;96327.01;;;25.18;66.79
34065;BME280;20339;49.754;20.158;2023-07-13T07:54:58;96326.70;;;25.05;67.24
34065;BME280;20339;49.754;20.158;2023-07-13T07:57:32;96326.64;;;24.86;67.68
34065;BME280;20339;49.754;20.158;2023-07-13T08:00:05;96329.88;;;24.75;68.56
34065;BME280;20339;49.754;20.158;2023-07-13T08:02:36;96324.52;;;24.69;68.78
34065;BME280;20339;49.754;20.158;2023-07-13T08:05:17;96325.34;;;24.55;69.29
34065;BME280;20339;49.754;20.158;2023-07-13T08:07:51;96326.71;;;24.52;70.05
34065;BME280;20339;49.754;20.158;2023-07-13T08:10:28;96326.65;;;24.55;70.72
34065;BME280;20339;49.754;20.158;2023-07-13T08:13:03;96330.55;;;24.60;71.08
34065;BME280;20339;49.754;20.158;2023-07-13T08:15:34;96330.83;;;24.64;71.36
34065;BME280;20339;49.754;20.158;2023-07-13T08:18:06;96334.23;;;24.64;71.43
34065;BME280;20339;49.754;20.158;2023-07-13T08:20:43;96334.86;;;24.64;71.75
34065;BME280;20339;49.754;20.158;2023-07-13T08:23:17;96334.52;;;24.61;72.13
34065;BME280;20339;49.754;20.158;2023-07-13T08:25:59;96337.05;;;24.59;72.31
34065;BME280;20339;49.754;20.158;2023-07-13T08:28:45;96330.23;;;24.59;72.54
34065;BME280;20339;49.754;20.158;2023-07-13T08:31:27;96327.06;;;24.59;72.76
34065;BME280;20339;49.754;20.158;2023-07-13T08:34:13;96324.20;;;24.61;73.18
34065;BME280;20339;49.754;20.158;2023-07-13T08:36:47;96326.98;;;24.56;72.73
34065;BME280;20339;49.754;20.158;2023-07-13T08:39:23;96328.20;;;24.46;72.33
34065;BME280;20339;49.754;20.158;2023-07-13T08:42:01;96333.80;;;24.39;72.61
34065;BME280;20339;49.754;20.158;2023-07-13T08:44:49;96329.84;;;24.31;72.36
34065;BME280;20339;49.754;20.158;2023-07-13T08:47:32;96331.60;;;24.12;72.33
34065;BME280;20339;49.754;20.158;2023-07-13T08:50:13;96330.80;;;24.04;72.97
34065;BME280;20339;49.754;20.158;2023-07-13T08:52:46;96330.79;;;24.02;73.28
34065;BME280;20339;49.754;20.158;2023-07-13T08:55:22;96323.61;;;23.95;72.88
34065;BME280;20339;49.754;20.158;2023-07-13T08:58:09;96324.89;;;23.83;73.01
34065;BME280;20339;49.754;20.158;2023-07-13T09:01:02;96322.63;;;23.75;73.14
34065;BME280;20339;49.754;20.158;2023-07-13T09:03:43;96321.25;;;23.69;73.57
34065;BME280;20339;49.754;20.158;2023-07-13T09:06:27;96317.44;;;23.66;74.03
34065;BME280;20339;49.754;20.158;2023-07-13T09:09:10;96313.67;;;23.62;73.67
34065;BME280;20339;49.754;20.158;2023-07-13T09:11:52;96310.38;;;23.41;73.85
34065;BME280;20339;49.754;20.158;2023-07-13T09:14:37;96306.88;;;23.20;74.52
34065;BME280;20339;49.754;20.158;2023-07-13T09:17:15;96304.72;;;23.02;74.97
34065;BME280;20339;49.754;20.158;2023-07-13T09:19:58;96308.96;;;22.86;75.74
34065;BME280;20339;49.754;20.158;2023-07-13T09:22:39;96310.02;;;22.75;76.43
34065;BME280;20339;49.754;20.158;2023-07-13T09:25:24;96307.41;;;22.66;77.28
34065;BME280;20339;49.754;20.158;2023-07-13T09:28:01;96306.31;;;22.66;78.35
34065;BME280;20339;49.754;20.158;2023-07-13T09:30:36;96303.57;;;22.72;79.06
34065;BME280;20339;49.754;20.158;2023-07-13T09:33:10;96307.10;;;22.76;79.08
34065;BME280;20339;49.754;20.158;2023-07-13T09:35:44;96305.10;;;22.78;79.36
34065;BME280;20339;49.754;20.158;2023-07-13T09:38:18;96316.96;;;22.75;79.38
34065;BME280;20339;49.754;20.158;2023-07-13T09:40:59;96314.52;;;22.71;79.82
34065;BME280;20339;49.754;20.158;2023-07-13T09:43:33;96324.89;;;22.68;80.24
34065;BME280;20339;49.754;20.158;2023-07-13T09:46:07;96328.50;;;22.62;80.56
34065;BME280;20339;49.754;20.158;2023-07-13T09:48:54;96329.20;;;22.56;80.82
34065;BME280;20339;49.754;20.158;2023-07-13T09:51:29;96329.09;;;22.54;81.29
34065;BME280;20339;49.754;20.158;2023-07-13T09:54:04;96332.89;;;22.52;81.26
34065;BME280;20339;49.754;20.158;2023-07-13T10:00:25;96338.13;;;22.40;81.98
34065;BME280;20339;49.754;20.158;2023-07-13T10:03:05;96339.13;;;22.32;82.34
34065;BME280;20339;49.754;20.158;2023-07-13T10:05:41;96341.35;;;22.21;82.57
34065;BME280;20339;49.754;20.158;2023-07-13T10:08:23;96347.62;;;22.13;83.03
34065;BME280;20339;49.754;20.158;2023-07-13T10:11:02;96350.24;;;22.06;83.42
34065;BME280;20339;49.754;20.158;2023-07-13T10:13:44;96350.98;;;22.05;83.97
34065;BME280;20339;49.754;20.158;2023-07-13T10:16:16;96350.95;;;22.03;84.33
34065;BME280;20339;49.754;20.158;2023-07-13T10:18:50;96349.84;;;22.01;84.25
34065;BME280;20339;49.754;20.158;2023-07-13T10:21:26;96357.84;;;21.92;82.86
34065;BME280;20339;49.754;20.158;2023-07-13T10:24:32;96365.31;;;21.83;82.01
34065;BME280;20339;49.754;20.158;2023-07-13T10:27:17;96357.49;;;21.54;81.43
34065;BME280;20339;49.754;20.158;2023-07-13T10:29:51;96351.53;;;21.27;81.04
34065;BME280;20339;49.754;20.158;2023-07-13T10:32:25;96350.83;;;21.09;79.56
34065;BME280;20339;49.754;20.158;2023-07-13T10:34:57;96356.85;;;20.89;78.77
34065;BME280;20339;49.754;20.158;2023-07-13T10:37:36;96364.80;;;20.57;78.33
34065;BME280;20339;49.754;20.158;2023-07-13T10:40:15;96367.64;;;20.24;78.14
34065;BME280;20339;49.754;20.158;2023-07-13T10:42:51;96375.92;;;19.90;78.22
34065;BME280;20339;49.754;20.158;2023-07-13T10:45:33;96383.89;;;19.65;78.49
34065;BME280;20339;49.754;20.158;2023-07-13T10:48:06;96395.81;;;19.39;78.58
34065;BME280;20339;49.754;20.158;2023-07-13T10:50:44;96412.64;;;19.16;78.91
34065;BME280;20339;49.754;20.158;2023-07-13T10:53:27;96410.69;;;18.95;79.37
34065;BME280;20339;49.754;20.158;2023-07-13T10:56:01;96402.92;;;18.84;80.19
34065;BME280;20339;49.754;20.158;2023-07-13T10:58:37;96401.67;;;18.86;80.77
34065;BME280;20339;49.754;20.158;2023-07-13T11:01:11;96407.89;;;18.88;81.13
34065;BME280;20339;49.754;20.158;2023-07-13T11:03:55;96414.00;;;18.90;81.40
34065;BME280;20339;49.754;20.158;2023-07-13T11:10:50;96444.83;;;18.89;81.53
34065;BME280;20339;49.754;20.158;2023-07-13T11:13:56;96450.20;;;18.80;82.03
34065;BME280;20339;49.754;20.158;2023-07-13T11:35:19;96491.38;;;18.65;83.80
34065;BME280;20339;49.754;20.158;2023-07-13T11:38:01;96498.10;;;18.66;83.97
34065;BME280;20339;49.754;20.158;2023-07-13T11:40:34;96501.39;;;18.69;83.72
34065;BME280;20339;49.754;20.158;2023-07-13T11:43:11;96501.86;;;18.62;83.39
34065;BME280;20339;49.754;20.158;2023-07-13T11:45:44;96493.70;;;18.55;83.62
34065;BME280;20339;49.754;20.158;2023-07-13T11:48:26;96489.04;;;18.54;84.11
34065;BME280;20339;49.754;20.158;2023-07-13T11:51:03;96493.36;;;18.54;84.30
34065;BME280;20339;49.754;20.158;2023-07-13T11:53:39;96496.67;;;18.52;84.33
34065;BME280;20339;49.754;20.158;2023-07-13T12:03:26;96504.55;;;18.38;85.59
34065;BME280;20339;49.754;20.158;2023-07-13T12:24:25;96564.59;;;18.51;86.65
34065;BME280;20339;49.754;20.158;2023-07-13T12:27:01;96572.17;;;18.44;86.67
34065;BME280;20339;49.754;20.158;2023-07-13T12:29:34;96581.83;;;18.37;86.91
34065;BME280;20339;49.754;20.158;2023-07-13T12:32:14;96582.58;;;18.37;87.39
34065;BME280;20339;49.754;20.158;2023-07-13T12:34:55;96584.48;;;18.37;87.42
34065;BME280;20339;49.754;20.158;2023-07-13T12:37:27;96587.39;;;18.34;87.30
34065;BME280;20339;49.754;20.158;2023-07-13T12:40:01;96594.04;;;18.33;87.74
34065;BME280;20339;49.754;20.158;2023-07-13T12:42:40;96587.77;;;18.34;87.92
34065;BME280;20339;49.754;20.158;2023-07-13T12:45:22;96584.00;;;18.32;87.94
34065;BME280;20339;49.754;20.158;2023-07-13T12:47:57;96577.59;;;18.32;88.05
34065;BME280;20339;49.754;20.158;2023-07-13T12:50:39;96574.52;;;18.37;88.21
34065;BME280;20339;49.754;20.158;2023-07-13T12:53:15;96572.35;;;18.41;88.13
34065;BME280;20339;49.754;20.158;2023-07-13T12:55:54;96573.85;;;18.43;88.13
34065;BME280;20339;49.754;20.158;2023-07-13T12:58:29;96570.54;;;18.42;87.96
34065;BME280;20339;49.754;20.158;2023-07-13T13:01:05;96567.42;;;18.40;88.16
34065;BME280;20339;49.754;20.158;2023-07-13T13:03:40;96557.02;;;18.41;88.37
34065;BME280;20339;49.754;20.158;2023-07-13T13:06:23;96556.70;;;18.45;88.53
34065;BME280;20339;49.754;20.158;2023-07-13T13:08:59;96553.83;;;18.46;88.53
34065;BME280;20339;49.754;20.158;2023-07-13T13:11:32;96549.80;;;18.49;88.86
34065;BME280;20339;49.754;20.158;2023-07-13T13:14:08;96543.89;;;18.49;88.80
34065;BME280;20339;49.754;20.158;2023-07-13T13:16:47;96553.92;;;18.53;89.36
34065;BME280;20339;49.754;20.158;2023-07-13T13:19:24;96558.77;;;18.60;89.92
34065;BME280;20339;49.754;20.158;2023-07-13T13:21:57;96561.91;;;18.66;90.24
34065;BME280;20339;49.754;20.158;2023-07-13T13:24:35;96560.61;;;18.71;90.33
34065;BME280;20339;49.754;20.158;2023-07-13T13:27:15;96559.47;;;18.73;90.39
34065;BME280;20339;49.754;20.158;2023-07-13T13:29:54;96555.34;;;18.75;90.26
34065;BME280;20339;49.754;20.158;2023-07-13T13:32:28;96561.73;;;18.76;90.10
34065;BME280;20339;49.754;20.158;2023-07-13T13:35:00;96555.49;;;18.75;89.53
34065;BME280;20339;49.754;20.158;2023-07-13T13:37:33;96548.80;;;18.69;88.80
34065;BME280;20339;49.754;20.158;2023-07-13T13:40:14;96550.94;;;18.72;89.10
34065;BME280;20339;49.754;20.158;2023-07-13T13:42:48;96550.05;;;18.78;88.87
34065;BME280;20339;49.754;20.158;2023-07-13T13:45:21;96548.94;;;18.86;89.05
34065;BME280;20339;49.754;20.158;2023-07-13T13:47:57;96547.21;;;18.92;88.97
34065;BME280;20339;49.754;20.158;2023-07-13T13:50:31;96548.59;;;18.98;88.80
34065;BME280;20339;49.754;20.158;2023-07-13T13:53:03;96552.58;;;19.03;88.60
34065;BME280;20339;49.754;20.158;2023-07-13T13:55:35;96552.99;;;19.09;88.61
34065;BME280;20339;49.754;20.158;2023-07-13T13:58:12;96543.90;;;19.17;88.85
34065;BME280;20339;49.754;20.158;2023-07-13T14:00:43;96545.89;;;19.34;89.52
34065;BME280;20339;49.754;20.158;2023-07-13T14:03:21;96553.23;;;19.47;89.24
34065;BME280;20339;49.754;20.158;2023-07-13T14:05:54;96555.89;;;19.58;89.18
34065;BME280;20339;49.754;20.158;2023-07-13T14:08:29;96554.41;;;19.69;88.95
34065;BME280;20339;49.754;20.158;2023-07-13T14:11:02;96552.65;;;19.83;88.80
34065;BME280;20339;49.754;20.158;2023-07-13T14:13:38;96554.14;;;19.92;88.68
34065;BME280;20339;49.754;20.158;2023-07-13T14:16:14;96556.52;;;19.94;87.87
34065;BME280;20339;49.754;20.158;2023-07-13T14:18:49;96552.40;;;19.98;87.47
34065;BME280;20339;49.754;20.158;2023-07-13T14:21:25;96549.61;;;20.05;87.41
34065;BME280;20339;49.754;20.158;2023-07-13T14:24:00;96544.36;;;20.09;86.96
34065;BME280;20339;49.754;20.158;2023-07-13T14:26:37;96536.61;;;20.21;87.37
34065;BME280;20339;49.754;20.158;2023-07-13T14:29:16;96533.77;;;20.34;86.88